Forside
METAR-TAF:

METAR-TAF

Lufthavne :

Amman, Jordan

Breddekreds: 31-59N, længdekreds: 035-59E, højde: 767 m

Aktuelle vejr

Denne rapport blev lavet for 14 minutter siden, kl. 13:00 UTC
Vind 16 kt fra nordnordvest
Temperatur 30°C
Fugtighed 27%
Tryk 1016 hPa
Sigt: 6000 m

METAR: OJAM 221300Z 34016KT 6000 NSC 30/09 Q1016 NOSIG

Tid: 16:14 (13:14 UTC)

Vejrudsigter

Denne rapport blev lavet for 2 timer og 24 minutter siden, kl. 10:50 UTC
Foreløbig gælder fra 22 på 12 UTC til 23 på 18 UTC
Vind 8 kt fra vest
Sigt: 6000 m
Midlertidig
fra 22 på 14 UTC til 22 på 20 UTC
Vind 22 kt fra vest
Sigt: 4000 m
blæsende støv

TAF: OJAM 221050Z 2212/2318 27008KT 6000 NSC TEMPO 2214/2220 28022KT 4000 BLDU

Vejrobservationer og prognoser fra mere end 4000 lufthavne (METAR og TAF).

De gule og røde prikker repræsenterer de meteorologiske stationer.

Flyt musen over at se navnet på stationen.

Så klik over at se vejr observationer og prognoser.

At skifte det kort: Klik på de grønne knapper med et sort kors for at zoome ind; på den grønne knap med en bindestreg for at zoome ud; eller på de grønne pile for tilstødende kort.


METAR-TAF: